sensor_id;sensor_type;location;lat;lon;timestamp;P1;durP1;ratioP1;P2;durP2;ratioP2
57441;SDS011;43284;47.042;15.498;2023-03-21T00:01:33;3.75;;;2.50;;
57441;SDS011;43284;47.042;15.498;2023-03-21T00:03:58;4.05;;;2.38;;
57441;SDS011;43284;47.042;15.498;2023-03-21T00:06:24;4.85;;;2.35;;
57441;SDS011;43284;47.042;15.498;2023-03-21T00:08:50;3.30;;;2.17;;
57441;SDS011;43284;47.042;15.498;2023-03-21T00:11:16;5.75;;;4.03;;
57441;SDS011;43284;47.042;15.498;2023-03-21T00:13:41;4.93;;;2.45;;
57441;SDS011;43284;47.042;15.498;2023-03-21T00:18:41;3.42;;;2.00;;
57441;SDS011;43284;47.042;15.498;2023-03-21T00:21:14;3.13;;;2.42;;
57441;SDS011;43284;47.042;15.498;2023-03-21T00:23:42;3.35;;;2.33;;
57441;SDS011;43284;47.042;15.498;2023-03-21T00:26:08;4.20;;;2.03;;
57441;SDS011;43284;47.042;15.498;2023-03-21T00:28:35;4.22;;;2.03;;
57441;SDS011;43284;47.042;15.498;2023-03-21T00:31:02;5.72;;;2.13;;
57441;SDS011;43284;47.042;15.498;2023-03-21T00:33:28;4.15;;;2.15;;
57441;SDS011;43284;47.042;15.498;2023-03-21T00:35:54;6.25;;;2.50;;
57441;SDS011;43284;47.042;15.498;2023-03-21T00:38:21;4.18;;;2.55;;
57441;SDS011;43284;47.042;15.498;2023-03-21T00:40:48;5.20;;;2.47;;
57441;SDS011;43284;47.042;15.498;2023-03-21T00:43:14;3.55;;;2.38;;
57441;SDS011;43284;47.042;15.498;2023-03-21T00:45:47;4.32;;;2.63;;
57441;SDS011;43284;47.042;15.498;2023-03-21T00:48:15;6.25;;;2.30;;
57441;SDS011;43284;47.042;15.498;2023-03-21T00:50:42;2.47;;;1.85;;
57441;SDS011;43284;47.042;15.498;2023-03-21T00:53:11;3.50;;;2.05;;
57441;SDS011;43284;47.042;15.498;2023-03-21T00:55:37;4.38;;;2.38;;
57441;SDS011;43284;47.042;15.498;2023-03-21T00:58:03;3.42;;;2.08;;
57441;SDS011;43284;47.042;15.498;2023-03-21T01:00:30;2.90;;;2.00;;
57441;SDS011;43284;47.042;15.498;2023-03-21T01:02:57;2.67;;;1.85;;
57441;SDS011;43284;47.042;15.498;2023-03-21T01:05:31;2.60;;;1.92;;
57441;SDS011;43284;47.042;15.498;2023-03-21T01:08:21;3.28;;;2.22;;
57441;SDS011;43284;47.042;15.498;2023-03-21T01:10:48;5.70;;;2.15;;
57441;SDS011;43284;47.042;15.498;2023-03-21T01:13:15;7.00;;;4.03;;
57441;SDS011;43284;47.042;15.498;2023-03-21T01:15:43;3.70;;;2.30;;
57441;SDS011;43284;47.042;15.498;2023-03-21T01:18:14;3.47;;;2.20;;
57441;SDS011;43284;47.042;15.498;2023-03-21T01:20:42;3.08;;;1.92;;
57441;SDS011;43284;47.042;15.498;2023-03-21T01:23:09;3.30;;;1.95;;
57441;SDS011;43284;47.042;15.498;2023-03-21T01:25:37;3.25;;;2.40;;
57441;SDS011;43284;47.042;15.498;2023-03-21T01:28:02;3.30;;;2.03;;
57441;SDS011;43284;47.042;15.498;2023-03-21T01:30:29;4.68;;;2.30;;
57441;SDS011;43284;47.042;15.498;2023-03-21T01:32:54;5.45;;;2.15;;
57441;SDS011;43284;47.042;15.498;2023-03-21T01:35:20;4.63;;;2.05;;
57441;SDS011;43284;47.042;15.498;2023-03-21T01:37:46;3.20;;;2.03;;
57441;SDS011;43284;47.042;15.498;2023-03-21T01:40:17;5.38;;;3.00;;
57441;SDS011;43284;47.042;15.498;2023-03-21T01:42:48;7.82;;;2.35;;
57441;SDS011;43284;47.042;15.498;2023-03-21T01:48:17;5.03;;;2.65;;
57441;SDS011;43284;47.042;15.498;2023-03-21T01:50:45;8.15;;;2.97;;
57441;SDS011;43284;47.042;15.498;2023-03-21T01:53:11;5.10;;;2.50;;
57441;SDS011;43284;47.042;15.498;2023-03-21T01:55:38;7.95;;;2.63;;
57441;SDS011;43284;47.042;15.498;2023-03-21T01:58:05;7.18;;;3.00;;
57441;SDS011;43284;47.042;15.498;2023-03-21T02:00:34;5.90;;;2.70;;
57441;SDS011;43284;47.042;15.498;2023-03-21T02:03:02;9.00;;;3.55;;
57441;SDS011;43284;47.042;15.498;2023-03-21T02:08:04;9.10;;;3.97;;
57441;SDS011;43284;47.042;15.498;2023-03-21T02:10:30;13.15;;;4.05;;
57441;SDS011;43284;47.042;15.498;2023-03-21T02:12:57;9.32;;;3.78;;
57441;SDS011;43284;47.042;15.498;2023-03-21T02:15:37;7.55;;;3.22;;
57441;SDS011;43284;47.042;15.498;2023-03-21T02:18:13;5.18;;;2.97;;
57441;SDS011;43284;47.042;15.498;2023-03-21T02:21:10;5.93;;;2.90;;
57441;SDS011;43284;47.042;15.498;2023-03-21T02:23:57;5.72;;;2.83;;
57441;SDS011;43284;47.042;15.498;2023-03-21T02:26:53;7.30;;;3.58;;
57441;SDS011;43284;47.042;15.498;2023-03-21T02:35:46;7.10;;;3.55;;
57441;SDS011;43284;47.042;15.498;2023-03-21T02:41:05;8.05;;;3.53;;
57441;SDS011;43284;47.042;15.498;2023-03-21T02:43:44;7.05;;;3.80;;
57441;SDS011;43284;47.042;15.498;2023-03-21T02:46:20;8.52;;;3.90;;
57441;SDS011;43284;47.042;15.498;2023-03-21T02:48:56;7.15;;;3.95;;
57441;SDS011;43284;47.042;15.498;2023-03-21T02:51:30;7.38;;;3.35;;
57441;SDS011;43284;47.042;15.498;2023-03-21T02:54:00;7.90;;;4.13;;
57441;SDS011;43284;47.042;15.498;2023-03-21T02:58:58;8.18;;;4.10;;
57441;SDS011;43284;47.042;15.498;2023-03-21T03:01:25;8.75;;;4.45;;
57441;SDS011;43284;47.042;15.498;2023-03-21T03:03:51;9.55;;;4.57;;
57441;SDS011;43284;47.042;15.498;2023-03-21T03:09:03;9.10;;;4.30;;
57441;SDS011;43284;47.042;15.498;2023-03-21T03:11:42;9.98;;;4.80;;
57441;SDS011;43284;47.042;15.498;2023-03-21T03:14:16;11.10;;;4.10;;
57441;SDS011;43284;47.042;15.498;2023-03-21T03:22:40;8.07;;;4.00;;
57441;SDS011;43284;47.042;15.498;2023-03-21T03:25:13;6.25;;;3.20;;
57441;SDS011;43284;47.042;15.498;2023-03-21T03:27:48;8.60;;;4.18;;
57441;SDS011;43284;47.042;15.498;2023-03-21T03:30:17;4.82;;;3.45;;
57441;SDS011;43284;47.042;15.498;2023-03-21T03:35:18;13.15;;;3.83;;
57441;SDS011;43284;47.042;15.498;2023-03-21T03:37:47;9.05;;;4.35;;
57441;SDS011;43284;47.042;15.498;2023-03-21T03:40:24;6.35;;;3.60;;
57441;SDS011;43284;47.042;15.498;2023-03-21T03:42:56;6.43;;;3.67;;
57441;SDS011;43284;47.042;15.498;2023-03-21T03:45:28;8.45;;;3.83;;
57441;SDS011;43284;47.042;15.498;2023-03-21T03:48:06;7.43;;;3.13;;
57441;SDS011;43284;47.042;15.498;2023-03-21T03:55:59;8.35;;;3.25;;
57441;SDS011;43284;47.042;15.498;2023-03-21T03:58:25;4.50;;;2.63;;
57441;SDS011;43284;47.042;15.498;2023-03-21T04:00:53;5.82;;;2.75;;
57441;SDS011;43284;47.042;15.498;2023-03-21T04:03:19;6.70;;;2.88;;
57441;SDS011;43284;47.042;15.498;2023-03-21T04:05:46;5.00;;;3.08;;
57441;SDS011;43284;47.042;15.498;2023-03-21T04:08:12;4.32;;;2.47;;
57441;SDS011;43284;47.042;15.498;2023-03-21T04:10:40;4.50;;;2.65;;
57441;SDS011;43284;47.042;15.498;2023-03-21T04:13:06;6.30;;;2.92;;
57441;SDS011;43284;47.042;15.498;2023-03-21T04:15:32;4.00;;;2.22;;
57441;SDS011;43284;47.042;15.498;2023-03-21T04:17:58;7.00;;;2.40;;
57441;SDS011;43284;47.042;15.498;2023-03-21T04:20:23;6.93;;;2.55;;
57441;SDS011;43284;47.042;15.498;2023-03-21T04:22:49;3.97;;;2.08;;
57441;SDS011;43284;47.042;15.498;2023-03-21T04:25:16;4.15;;;2.08;;
57441;SDS011;43284;47.042;15.498;2023-03-21T04:27:42;7.90;;;2.13;;
57441;SDS011;43284;47.042;15.498;2023-03-21T04:30:10;3.45;;;1.90;;
57441;SDS011;43284;47.042;15.498;2023-03-21T04:32:37;3.88;;;1.98;;
57441;SDS011;43284;47.042;15.498;2023-03-21T04:35:07;5.50;;;1.80;;
57441;SDS011;43284;47.042;15.498;2023-03-21T04:37:33;7.30;;;1.90;;
57441;SDS011;43284;47.042;15.498;2023-03-21T04:40:00;3.90;;;2.13;;
57441;SDS011;43284;47.042;15.498;2023-03-21T04:42:30;6.10;;;2.67;;
57441;SDS011;43284;47.042;15.498;2023-03-21T04:44:57;5.40;;;2.30;;
57441;SDS011;43284;47.042;15.498;2023-03-21T04:47:22;2.92;;;2.00;;
57441;SDS011;43284;47.042;15.498;2023-03-21T04:49:48;5.05;;;2.30;;
57441;SDS011;43284;47.042;15.498;2023-03-21T04:52:14;3.38;;;2.00;;
57441;SDS011;43284;47.042;15.498;2023-03-21T04:54:40;5.47;;;2.30;;
57441;SDS011;43284;47.042;15.498;2023-03-21T04:57:06;4.32;;;1.90;;
57441;SDS011;43284;47.042;15.498;2023-03-21T04:59:32;5.72;;;2.60;;
57441;SDS011;43284;47.042;15.498;2023-03-21T05:01:59;3.28;;;1.95;;
57441;SDS011;43284;47.042;15.498;2023-03-21T05:04:25;3.13;;;2.13;;
57441;SDS011;43284;47.042;15.498;2023-03-21T05:06:52;8.25;;;2.90;;
57441;SDS011;43284;47.042;15.498;2023-03-21T05:09:18;4.07;;;2.22;;
57441;SDS011;43284;47.042;15.498;2023-03-21T05:11:46;6.70;;;2.75;;
57441;SDS011;43284;47.042;15.498;2023-03-21T05:14:22;7.25;;;2.53;;
57441;SDS011;43284;47.042;15.498;2023-03-21T05:16:49;5.50;;;2.25;;
57441;SDS011;43284;47.042;15.498;2023-03-21T05:19:21;10.55;;;2.17;;
57441;SDS011;43284;47.042;15.498;2023-03-21T05:21:49;4.38;;;2.13;;
57441;SDS011;43284;47.042;15.498;2023-03-21T05:24:16;7.03;;;2.38;;
57441;SDS011;43284;47.042;15.498;2023-03-21T05:26:44;3.03;;;1.90;;
57441;SDS011;43284;47.042;15.498;2023-03-21T05:29:17;3.70;;;2.33;;
57441;SDS011;43284;47.042;15.498;2023-03-21T05:31:44;4.63;;;2.28;;
57441;SDS011;43284;47.042;15.498;2023-03-21T05:34:10;4.30;;;2.22;;
57441;SDS011;43284;47.042;15.498;2023-03-21T05:36:37;4.50;;;2.30;;
57441;SDS011;43284;47.042;15.498;2023-03-21T05:39:03;4.07;;;2.20;;
57441;SDS011;43284;47.042;15.498;2023-03-21T05:41:29;3.42;;;2.28;;
57441;SDS011;43284;47.042;15.498;2023-03-21T05:43:56;3.13;;;1.80;;
57441;SDS011;43284;47.042;15.498;2023-03-21T05:46:21;3.15;;;2.13;;
57441;SDS011;43284;47.042;15.498;2023-03-21T05:48:47;6.18;;;2.72;;
57441;SDS011;43284;47.042;15.498;2023-03-21T05:51:13;4.85;;;2.13;;
57441;SDS011;43284;47.042;15.498;2023-03-21T05:53:39;5.05;;;2.70;;
57441;SDS011;43284;47.042;15.498;2023-03-21T05:56:04;6.10;;;2.70;;
57441;SDS011;43284;47.042;15.498;2023-03-21T05:58:31;4.80;;;2.63;;
57441;SDS011;43284;47.042;15.498;2023-03-21T06:00:56;3.50;;;2.50;;
57441;SDS011;43284;47.042;15.498;2023-03-21T06:03:22;5.15;;;2.30;;
57441;SDS011;43284;47.042;15.498;2023-03-21T06:05:48;6.68;;;2.50;;
57441;SDS011;43284;47.042;15.498;2023-03-21T06:08:13;8.95;;;2.70;;
57441;SDS011;43284;47.042;15.498;2023-03-21T06:10:39;9.18;;;2.65;;
57441;SDS011;43284;47.042;15.498;2023-03-21T06:13:05;6.47;;;2.33;;
57441;SDS011;43284;47.042;15.498;2023-03-21T06:15:31;5.57;;;2.58;;
57441;SDS011;43284;47.042;15.498;2023-03-21T06:17:56;5.03;;;2.38;;
57441;SDS011;43284;47.042;15.498;2023-03-21T06:20:22;4.05;;;2.10;;
57441;SDS011;43284;47.042;15.498;2023-03-21T06:22:48;4.55;;;2.67;;
57441;SDS011;43284;47.042;15.498;2023-03-21T06:25:13;6.47;;;2.35;;
57441;SDS011;43284;47.042;15.498;2023-03-21T06:27:39;4.25;;;2.60;;
57441;SDS011;43284;47.042;15.498;2023-03-21T06:30:05;8.45;;;2.97;;
57441;SDS011;43284;47.042;15.498;2023-03-21T06:32:32;9.02;;;4.18;;
57441;SDS011;43284;47.042;15.498;2023-03-21T06:34:58;11.70;;;4.18;;
57441;SDS011;43284;47.042;15.498;2023-03-21T06:37:23;6.72;;;3.00;;
57441;SDS011;43284;47.042;15.498;2023-03-21T06:39:51;7.78;;;3.55;;
57441;SDS011;43284;47.042;15.498;2023-03-21T06:42:16;7.63;;;3.70;;
57441;SDS011;43284;47.042;15.498;2023-03-21T06:44:42;9.38;;;3.40;;
57441;SDS011;43284;47.042;15.498;2023-03-21T06:47:08;9.63;;;4.05;;
57441;SDS011;43284;47.042;15.498;2023-03-21T06:49:33;9.18;;;4.63;;
57441;SDS011;43284;47.042;15.498;2023-03-21T06:51:59;11.57;;;4.30;;
57441;SDS011;43284;47.042;15.498;2023-03-21T06:54:25;8.82;;;4.60;;
57441;SDS011;43284;47.042;15.498;2023-03-21T06:56:50;7.65;;;4.30;;
57441;SDS011;43284;47.042;15.498;2023-03-21T06:59:16;11.55;;;5.07;;
57441;SDS011;43284;47.042;15.498;2023-03-21T07:01:42;13.15;;;5.00;;
57441;SDS011;43284;47.042;15.498;2023-03-21T07:04:08;10.00;;;4.80;;
57441;SDS011;43284;47.042;15.498;2023-03-21T07:06:34;13.90;;;5.63;;
57441;SDS011;43284;47.042;15.498;2023-03-21T07:09:01;12.00;;;4.85;;
57441;SDS011;43284;47.042;15.498;2023-03-21T07:11:29;7.13;;;3.45;;
57441;SDS011;43284;47.042;15.498;2023-03-21T07:13:56;6.20;;;3.17;;
57441;SDS011;43284;47.042;15.498;2023-03-21T07:16:22;7.63;;;2.53;;
57441;SDS011;43284;47.042;15.498;2023-03-21T07:18:49;5.53;;;2.53;;
57441;SDS011;43284;47.042;15.498;2023-03-21T07:21:15;6.50;;;2.90;;
57441;SDS011;43284;47.042;15.498;2023-03-21T07:23:41;9.80;;;2.40;;
57441;SDS011;43284;47.042;15.498;2023-03-21T07:26:07;5.28;;;2.63;;
57441;SDS011;43284;47.042;15.498;2023-03-21T07:28:33;6.18;;;2.85;;
57441;SDS011;43284;47.042;15.498;2023-03-21T07:31:00;6.85;;;2.60;;
57441;SDS011;43284;47.042;15.498;2023-03-21T07:33:28;3.88;;;2.28;;
57441;SDS011;43284;47.042;15.498;2023-03-21T07:35:55;4.43;;;2.30;;
57441;SDS011;43284;47.042;15.498;2023-03-21T07:38:22;3.70;;;2.20;;
57441;SDS011;43284;47.042;15.498;2023-03-21T07:40:48;6.00;;;2.40;;
57441;SDS011;43284;47.042;15.498;2023-03-21T07:43:14;6.40;;;3.03;;
57441;SDS011;43284;47.042;15.498;2023-03-21T07:45:42;5.20;;;3.08;;
57441;SDS011;43284;47.042;15.498;2023-03-21T07:48:08;6.35;;;3.13;;
57441;SDS011;43284;47.042;15.498;2023-03-21T07:50:37;12.10;;;3.10;;
57441;SDS011;43284;47.042;15.498;2023-03-21T07:53:03;7.95;;;3.50;;
57441;SDS011;43284;47.042;15.498;2023-03-21T07:55:28;13.73;;;3.92;;
57441;SDS011;43284;47.042;15.498;2023-03-21T07:57:54;5.35;;;2.63;;
57441;SDS011;43284;47.042;15.498;2023-03-21T08:00:20;7.53;;;3.53;;
57441;SDS011;43284;47.042;15.498;2023-03-21T08:02:50;8.70;;;3.13;;
57441;SDS011;43284;47.042;15.498;2023-03-21T08:05:20;12.55;;;3.53;;
57441;SDS011;43284;47.042;15.498;2023-03-21T08:07:47;8.40;;;3.63;;
57441;SDS011;43284;47.042;15.498;2023-03-21T08:10:14;8.80;;;3.92;;
57441;SDS011;43284;47.042;15.498;2023-03-21T08:12:40;6.65;;;2.95;;
57441;SDS011;43284;47.042;15.498;2023-03-21T08:15:06;9.25;;;4.00;;
57441;SDS011;43284;47.042;15.498;2023-03-21T08:17:33;8.57;;;3.90;;
57441;SDS011;43284;47.042;15.498;2023-03-21T08:20:03;6.28;;;3.30;;
57441;SDS011;43284;47.042;15.498;2023-03-21T08:22:35;11.80;;;4.10;;
57441;SDS011;43284;47.042;15.498;2023-03-21T08:25:02;8.68;;;2.97;;
57441;SDS011;43284;47.042;15.498;2023-03-21T08:27:30;4.32;;;3.08;;
57441;SDS011;43284;47.042;15.498;2023-03-21T08:29:57;5.75;;;2.72;;
57441;SDS011;43284;47.042;15.498;2023-03-21T08:32:23;6.70;;;2.83;;
57441;SDS011;43284;47.042;15.498;2023-03-21T08:35:02;5.97;;;2.30;;
57441;SDS011;43284;47.042;15.498;2023-03-21T08:37:29;10.30;;;2.53;;
57441;SDS011;43284;47.042;15.498;2023-03-21T08:39:55;6.05;;;2.60;;
57441;SDS011;43284;47.042;15.498;2023-03-21T08:42:21;9.07;;;3.40;;
57441;SDS011;43284;47.042;15.498;2023-03-21T08:44:47;6.00;;;3.05;;
57441;SDS011;43284;47.042;15.498;2023-03-21T08:47:13;7.25;;;3.95;;
57441;SDS011;43284;47.042;15.498;2023-03-21T08:49:40;4.35;;;1.88;;
57441;SDS011;43284;47.042;15.498;2023-03-21T08:52:06;5.03;;;2.25;;
57441;SDS011;43284;47.042;15.498;2023-03-21T08:54:32;6.18;;;2.70;;
57441;SDS011;43284;47.042;15.498;2023-03-21T08:56:58;4.30;;;2.63;;
57441;SDS011;43284;47.042;15.498;2023-03-21T08:59:23;7.03;;;2.25;;
57441;SDS011;43284;47.042;15.498;2023-03-21T09:01:49;4.15;;;2.28;;
57441;SDS011;43284;47.042;15.498;2023-03-21T09:04:15;6.13;;;1.88;;
57441;SDS011;43284;47.042;15.498;2023-03-21T09:06:43;4.15;;;1.67;;
57441;SDS011;43284;47.042;15.498;2023-03-21T09:09:13;6.18;;;1.58;;
57441;SDS011;43284;47.042;15.498;2023-03-21T09:11:40;2.53;;;1.38;;
57441;SDS011;43284;47.042;15.498;2023-03-21T09:14:05;5.53;;;1.83;;
57441;SDS011;43284;47.042;15.498;2023-03-21T09:16:31;2.38;;;1.30;;
57441;SDS011;43284;47.042;15.498;2023-03-21T09:18:57;3.22;;;1.75;;
57441;SDS011;43284;47.042;15.498;2023-03-21T09:21:24;3.70;;;1.65;;
57441;SDS011;43284;47.042;15.498;2023-03-21T09:23:52;2.33;;;1.52;;
57441;SDS011;43284;47.042;15.498;2023-03-21T09:26:23;4.43;;;1.70;;
57441;SDS011;43284;47.042;15.498;2023-03-21T09:28:50;3.65;;;1.33;;
57441;SDS011;43284;47.042;15.498;2023-03-21T09:31:17;10.57;;;6.75;;
57441;SDS011;43284;47.042;15.498;2023-03-21T09:33:50;6.05;;;1.60;;
57441;SDS011;43284;47.042;15.498;2023-03-21T09:36:17;2.33;;;1.13;;
57441;SDS011;43284;47.042;15.498;2023-03-21T09:38:46;5.32;;;1.48;;
57441;SDS011;43284;47.042;15.498;2023-03-21T09:44:05;2.30;;;1.60;;
57441;SDS011;43284;47.042;15.498;2023-03-21T09:47:04;1.75;;;1.10;;
57441;SDS011;43284;47.042;15.498;2023-03-21T09:49:32;3.75;;;1.40;;
57441;SDS011;43284;47.042;15.498;2023-03-21T09:52:04;5.53;;;1.30;;
57441;SDS011;43284;47.042;15.498;2023-03-21T09:54:39;2.72;;;1.30;;
57441;SDS011;43284;47.042;15.498;2023-03-21T09:57:30;3.50;;;1.00;;
57441;SDS011;43284;47.042;15.498;2023-03-21T10:00:03;2.83;;;1.00;;
57441;SDS011;43284;47.042;15.498;2023-03-21T10:02:39;2.28;;;1.00;;
57441;SDS011;43284;47.042;15.498;2023-03-21T10:05:24;2.60;;;1.40;;
57441;SDS011;43284;47.042;15.498;2023-03-21T10:10:27;1.13;;;0.70;;
57441;SDS011;43284;47.042;15.498;2023-03-21T10:12:56;1.85;;;0.80;;
57441;SDS011;43284;47.042;15.498;2023-03-21T10:15:23;2.38;;;0.70;;
57441;SDS011;43284;47.042;15.498;2023-03-21T10:17:55;1.73;;;0.90;;
57441;SDS011;43284;47.042;15.498;2023-03-21T10:20:34;1.50;;;0.80;;
57441;SDS011;43284;47.042;15.498;2023-03-21T10:28:03;0.55;;;0.55;;
57441;SDS011;43284;47.042;15.498;2023-03-21T10:30:41;0.73;;;0.73;;
57441;SDS011;43284;47.042;15.498;2023-03-21T10:33:14;1.02;;;0.40;;
57441;SDS011;43284;47.042;15.498;2023-03-21T10:35:45;2.80;;;0.60;;
57441;SDS011;43284;47.042;15.498;2023-03-21T10:38:17;3.20;;;0.70;;
57441;SDS011;43284;47.042;15.498;2023-03-21T10:40:45;0.75;;;0.57;;
57441;SDS011;43284;47.042;15.498;2023-03-21T10:43:15;0.50;;;0.40;;
57441;SDS011;43284;47.042;15.498;2023-03-21T10:45:44;1.75;;;0.65;;
57441;SDS011;43284;47.042;15.498;2023-03-21T10:48:11;1.30;;;0.68;;
57441;SDS011;43284;47.042;15.498;2023-03-21T10:50:37;0.52;;;0.50;;
57441;SDS011;43284;47.042;15.498;2023-03-21T10:53:05;3.17;;;0.68;;
57441;SDS011;43284;47.042;15.498;2023-03-21T10:55:44;1.75;;;0.55;;
57441;SDS011;43284;47.042;15.498;2023-03-21T10:58:19;1.77;;;0.70;;
57441;SDS011;43284;47.042;15.498;2023-03-21T11:00:58;4.45;;;0.65;;
57441;SDS011;43284;47.042;15.498;2023-03-21T11:03:28;4.03;;;0.73;;
57441;SDS011;43284;47.042;15.498;2023-03-21T11:06:04;3.45;;;0.50;;
57441;SDS011;43284;47.042;15.498;2023-03-21T11:09:42;2.10;;;0.90;;
57441;SDS011;43284;47.042;15.498;2023-03-21T11:12:15;2.33;;;0.60;;
57441;SDS011;43284;47.042;15.498;2023-03-21T11:17:45;1.13;;;0.70;;
57441;SDS011;43284;47.042;15.498;2023-03-21T11:19:56;2.25;;;0.60;;
57441;SDS011;43284;47.042;15.498;2023-03-21T11:22:23;0.63;;;0.45;;
57441;SDS011;43284;47.042;15.498;2023-03-21T11:24:52;0.88;;;0.70;;
57441;SDS011;43284;47.042;15.498;2023-03-21T11:27:21;0.82;;;0.60;;
57441;SDS011;43284;47.042;15.498;2023-03-21T11:29:49;0.85;;;0.50;;
57441;SDS011;43284;47.042;15.498;2023-03-21T11:37:33;0.40;;;0.40;;
57441;SDS011;43284;47.042;15.498;2023-03-21T11:42:41;2.08;;;0.70;;
57441;SDS011;43284;47.042;15.498;2023-03-21T11:45:10;0.77;;;0.65;;
57441;SDS011;43284;47.042;15.498;2023-03-21T11:48:12;2.30;;;0.80;;
57441;SDS011;43284;47.042;15.498;2023-03-21T11:50:39;0.57;;;0.55;;
57441;SDS011;43284;47.042;15.498;2023-03-21T11:53:19;2.00;;;0.90;;
57441;SDS011;43284;47.042;15.498;2023-03-21T11:56:00;2.03;;;0.70;;
57441;SDS011;43284;47.042;15.498;2023-03-21T11:58:58;1.15;;;0.80;;
57441;SDS011;43284;47.042;15.498;2023-03-21T12:04:40;1.00;;;0.65;;
57441;SDS011;43284;47.042;15.498;2023-03-21T12:07:15;2.70;;;0.75;;
57441;SDS011;43284;47.042;15.498;2023-03-21T12:10:09;4.63;;;0.93;;
57441;SDS011;43284;47.042;15.498;2023-03-21T12:13:14;0.98;;;0.75;;
57441;SDS011;43284;47.042;15.498;2023-03-21T12:16:27;4.25;;;0.77;;
57441;SDS011;43284;47.042;15.498;2023-03-21T12:21:48;1.00;;;0.70;;
57441;SDS011;43284;47.042;15.498;2023-03-21T12:24:32;1.13;;;0.57;;
57441;SDS011;43284;47.042;15.498;2023-03-21T12:29:35;0.98;;;0.63;;
57441;SDS011;43284;47.042;15.498;2023-03-21T12:35:06;0.55;;;0.55;;
57441;SDS011;43284;47.042;15.498;2023-03-21T12:40:26;0.90;;;0.60;;
57441;SDS011;43284;47.042;15.498;2023-03-21T12:43:22;1.25;;;0.68;;
57441;SDS011;43284;47.042;15.498;2023-03-21T12:46:00;2.05;;;0.90;;
57441;SDS011;43284;47.042;15.498;2023-03-21T12:48:51;2.88;;;0.63;;
57441;SDS011;43284;47.042;15.498;2023-03-21T12:51:28;1.63;;;0.57;;
57441;SDS011;43284;47.042;15.498;2023-03-21T12:54:07;1.33;;;0.65;;
57441;SDS011;43284;47.042;15.498;2023-03-21T12:56:53;1.67;;;0.60;;
57441;SDS011;43284;47.042;15.498;2023-03-21T12:59:54;9.40;;;2.28;;
57441;SDS011;43284;47.042;15.498;2023-03-21T13:02:28;0.77;;;0.63;;
57441;SDS011;43284;47.042;15.498;2023-03-21T13:07:30;1.95;;;0.85;;
57441;SDS011;43284;47.042;15.498;2023-03-21T13:10:01;0.55;;;0.43;;
57441;SDS011;43284;47.042;15.498;2023-03-21T13:20:36;3.38;;;0.80;;
57441;SDS011;43284;47.042;15.498;2023-03-21T13:23:10;0.63;;;0.60;;
57441;SDS011;43284;47.042;15.498;2023-03-21T13:25:40;1.77;;;0.70;;
57441;SDS011;43284;47.042;15.498;2023-03-21T13:28:15;0.77;;;0.70;;
57441;SDS011;43284;47.042;15.498;2023-03-21T13:30:52;1.17;;;0.80;;
57441;SDS011;43284;47.042;15.498;2023-03-21T13:33:38;3.63;;;0.73;;
57441;SDS011;43284;47.042;15.498;2023-03-21T13:36:11;2.50;;;0.65;;
57441;SDS011;43284;47.042;15.498;2023-03-21T13:38:39;1.38;;;1.08;;
57441;SDS011;43284;47.042;15.498;2023-03-21T13:41:16;4.05;;;0.80;;
57441;SDS011;43284;47.042;15.498;2023-03-21T13:53:59;2.38;;;0.65;;
57441;SDS011;43284;47.042;15.498;2023-03-21T13:56:26;2.05;;;0.57;;
57441;SDS011;43284;47.042;15.498;2023-03-21T13:58:53;2.00;;;0.70;;
57441;SDS011;43284;47.042;15.498;2023-03-21T14:01:32;6.45;;;1.40;;
57441;SDS011;43284;47.042;15.498;2023-03-21T14:04:20;0.63;;;0.60;;
57441;SDS011;43284;47.042;15.498;2023-03-21T14:06:53;1.52;;;0.60;;
57441;SDS011;43284;47.042;15.498;2023-03-21T14:09:27;1.80;;;0.68;;
57441;SDS011;43284;47.042;15.498;2023-03-21T14:12:02;0.50;;;0.50;;
57441;SDS011;43284;47.042;15.498;2023-03-21T14:14:33;1.58;;;0.80;;
57441;SDS011;43284;47.042;15.498;2023-03-21T14:17:10;1.85;;;0.50;;
57441;SDS011;43284;47.042;15.498;2023-03-21T14:19:46;0.70;;;0.70;;
57441;SDS011;43284;47.042;15.498;2023-03-21T14:22:18;0.88;;;0.68;;
57441;SDS011;43284;47.042;15.498;2023-03-21T14:24:57;2.08;;;0.93;;
57441;SDS011;43284;47.042;15.498;2023-03-21T14:27:25;0.82;;;0.70;;
57441;SDS011;43284;47.042;15.498;2023-03-21T14:29:55;1.50;;;0.70;;
57441;SDS011;43284;47.042;15.498;2023-03-21T14:32:22;1.33;;;0.80;;
57441;SDS011;43284;47.042;15.498;2023-03-21T14:34:51;1.33;;;0.60;;
57441;SDS011;43284;47.042;15.498;2023-03-21T14:37:26;1.30;;;0.77;;
57441;SDS011;43284;47.042;15.498;2023-03-21T14:39:56;1.25;;;0.68;;
57441;SDS011;43284;47.042;15.498;2023-03-21T14:42:24;1.70;;;0.93;;
57441;SDS011;43284;47.042;15.498;2023-03-21T14:44:50;3.20;;;0.90;;
57441;SDS011;43284;47.042;15.498;2023-03-21T14:47:20;0.80;;;0.68;;
57441;SDS011;43284;47.042;15.498;2023-03-21T14:49:51;3.30;;;0.85;;
57441;SDS011;43284;47.042;15.498;2023-03-21T14:52:50;0.75;;;0.63;;
57441;SDS011;43284;47.042;15.498;2023-03-21T14:55:14;2.20;;;0.90;;
57441;SDS011;43284;47.042;15.498;2023-03-21T14:57:40;3.80;;;0.80;;
57441;SDS011;43284;47.042;15.498;2023-03-21T15:00:07;0.60;;;0.60;;
57441;SDS011;43284;47.042;15.498;2023-03-21T15:02:42;1.27;;;0.68;;
57441;SDS011;43284;47.042;15.498;2023-03-21T15:07:51;1.50;;;0.80;;
57441;SDS011;43284;47.042;15.498;2023-03-21T15:10:21;1.10;;;0.77;;
57441;SDS011;43284;47.042;15.498;2023-03-21T15:12:52;1.75;;;0.90;;
57441;SDS011;43284;47.042;15.498;2023-03-21T15:15:23;1.30;;;0.70;;
57441;SDS011;43284;47.042;15.498;2023-03-21T15:17:51;0.80;;;0.70;;
57441;SDS011;43284;47.042;15.498;2023-03-21T15:20:19;1.63;;;0.75;;
57441;SDS011;43284;47.042;15.498;2023-03-21T15:22:55;0.52;;;0.52;;
57441;SDS011;43284;47.042;15.498;2023-03-21T15:25:27;2.42;;;0.80;;
57441;SDS011;43284;47.042;15.498;2023-03-21T15:27:56;1.52;;;0.80;;
57441;SDS011;43284;47.042;15.498;2023-03-21T15:30:23;0.93;;;0.70;;
57441;SDS011;43284;47.042;15.498;2023-03-21T15:32:52;3.38;;;0.90;;
57441;SDS011;43284;47.042;15.498;2023-03-21T15:35:38;2.10;;;1.20;;
57441;SDS011;43284;47.042;15.498;2023-03-21T15:38:18;2.05;;;0.80;;
57441;SDS011;43284;47.042;15.498;2023-03-21T15:41:13;1.38;;;0.88;;
57441;SDS011;43284;47.042;15.498;2023-03-21T15:43:53;1.60;;;0.95;;
57441;SDS011;43284;47.042;15.498;2023-03-21T15:46:32;0.85;;;0.57;;
57441;SDS011;43284;47.042;15.498;2023-03-21T15:49:15;2.03;;;0.75;;
57441;SDS011;43284;47.042;15.498;2023-03-21T15:51:44;1.50;;;0.88;;
57441;SDS011;43284;47.042;15.498;2023-03-21T15:54:21;1.05;;;0.70;;
57441;SDS011;43284;47.042;15.498;2023-03-21T15:56:52;0.65;;;0.65;;
57441;SDS011;43284;47.042;15.498;2023-03-21T15:59:20;2.13;;;0.68;;
57441;SDS011;43284;47.042;15.498;2023-03-21T16:01:49;4.50;;;0.80;;
57441;SDS011;43284;47.042;15.498;2023-03-21T16:04:16;1.23;;;0.77;;
57441;SDS011;43284;47.042;15.498;2023-03-21T16:07:02;2.50;;;0.70;;
57441;SDS011;43284;47.042;15.498;2023-03-21T16:09:44;1.25;;;0.80;;
57441;SDS011;43284;47.042;15.498;2023-03-21T16:12:12;1.13;;;0.88;;
57441;SDS011;43284;47.042;15.498;2023-03-21T16:14:38;0.90;;;0.70;;
57441;SDS011;43284;47.042;15.498;2023-03-21T16:17:16;2.88;;;0.90;;
57441;SDS011;43284;47.042;15.498;2023-03-21T16:19:51;1.30;;;0.82;;
57441;SDS011;43284;47.042;15.498;2023-03-21T16:22:18;0.82;;;0.70;;
57441;SDS011;43284;47.042;15.498;2023-03-21T16:24:45;2.85;;;0.90;;
57441;SDS011;43284;47.042;15.498;2023-03-21T16:27:11;2.75;;;0.90;;
57441;SDS011;43284;47.042;15.498;2023-03-21T16:29:37;1.75;;;0.70;;